sensor_id;sensor_type;location;lat;lon;timestamp;temperature;humidity
3994;DHT22;2011;48.238;13.948;2022-11-28T00:01:17;1.10;99.90
3994;DHT22;2011;48.238;13.948;2022-11-28T00:03:44;1.10;99.90
3994;DHT22;2011;48.238;13.948;2022-11-28T00:06:11;1.10;99.90
3994;DHT22;2011;48.238;13.948;2022-11-28T00:08:38;1.10;99.90
3994;DHT22;2011;48.238;13.948;2022-11-28T00:11:06;1.10;99.90
3994;DHT22;2011;48.238;13.948;2022-11-28T00:13:33;1.10;99.90
3994;DHT22;2011;48.238;13.948;2022-11-28T00:16:02;1.20;99.90
3994;DHT22;2011;48.238;13.948;2022-11-28T00:18:31;1.20;99.90
3994;DHT22;2011;48.238;13.948;2022-11-28T00:20:59;1.20;99.90
3994;DHT22;2011;48.238;13.948;2022-11-28T00:23:26;1.20;99.90
3994;DHT22;2011;48.238;13.948;2022-11-28T00:25:56;1.10;99.90
3994;DHT22;2011;48.238;13.948;2022-11-28T00:28:23;1.10;99.90
3994;DHT22;2011;48.238;13.948;2022-11-28T00:30:50;1.10;99.90
3994;DHT22;2011;48.238;13.948;2022-11-28T00:33:17;1.10;99.90
3994;DHT22;2011;48.238;13.948;2022-11-28T00:35:45;1.10;99.90
3994;DHT22;2011;48.238;13.948;2022-11-28T00:38:12;1.10;99.90
3994;DHT22;2011;48.238;13.948;2022-11-28T00:40:39;1.10;99.90
3994;DHT22;2011;48.238;13.948;2022-11-28T00:43:06;1.10;99.90
3994;DHT22;2011;48.238;13.948;2022-11-28T00:45:33;1.10;99.90
3994;DHT22;2011;48.238;13.948;2022-11-28T00:48:00;1.10;99.90
3994;DHT22;2011;48.238;13.948;2022-11-28T00:50:27;1.10;99.90
3994;DHT22;2011;48.238;13.948;2022-11-28T00:52:55;1.10;99.90
3994;DHT22;2011;48.238;13.948;2022-11-28T00:55:22;1.10;99.90
3994;DHT22;2011;48.238;13.948;2022-11-28T00:57:49;1.10;99.90
3994;DHT22;2011;48.238;13.948;2022-11-28T01:00:16;1.10;99.90
3994;DHT22;2011;48.238;13.948;2022-11-28T01:02:43;1.10;99.90
3994;DHT22;2011;48.238;13.948;2022-11-28T01:05:10;1.10;99.90
3994;DHT22;2011;48.238;13.948;2022-11-28T01:07:37;1.10;99.90
3994;DHT22;2011;48.238;13.948;2022-11-28T01:10:10;1.20;99.90
3994;DHT22;2011;48.238;13.948;2022-11-28T01:12:37;1.10;99.90
3994;DHT22;2011;48.238;13.948;2022-11-28T01:15:05;1.00;99.90
3994;DHT22;2011;48.238;13.948;2022-11-28T01:17:33;0.80;99.90
3994;DHT22;2011;48.238;13.948;2022-11-28T01:20:00;0.70;99.90
3994;DHT22;2011;48.238;13.948;2022-11-28T01:22:27;0.70;99.90
3994;DHT22;2011;48.238;13.948;2022-11-28T01:24:54;0.70;99.90
3994;DHT22;2011;48.238;13.948;2022-11-28T01:27:23;0.70;99.90
3994;DHT22;2011;48.238;13.948;2022-11-28T01:29:50;0.70;99.90
3994;DHT22;2011;48.238;13.948;2022-11-28T01:32:17;0.70;99.90
3994;DHT22;2011;48.238;13.948;2022-11-28T01:34:44;0.70;99.90
3994;DHT22;2011;48.238;13.948;2022-11-28T01:37:10;0.70;99.90
3994;DHT22;2011;48.238;13.948;2022-11-28T01:39:37;0.80;99.90
3994;DHT22;2011;48.238;13.948;2022-11-28T01:42:04;0.80;99.90
3994;DHT22;2011;48.238;13.948;2022-11-28T01:47:39;0.80;99.90
3994;DHT22;2011;48.238;13.948;2022-11-28T01:50:07;0.90;99.90
3994;DHT22;2011;48.238;13.948;2022-11-28T01:52:36;0.90;99.90
3994;DHT22;2011;48.238;13.948;2022-11-28T01:55:05;0.90;99.90
3994;DHT22;2011;48.238;13.948;2022-11-28T01:57:33;0.80;99.90
3994;DHT22;2011;48.238;13.948;2022-11-28T02:00:04;0.80;99.90
3994;DHT22;2011;48.238;13.948;2022-11-28T02:02:34;0.80;99.90
3994;DHT22;2011;48.238;13.948;2022-11-28T02:05:04;0.80;99.90
3994;DHT22;2011;48.238;13.948;2022-11-28T02:07:31;0.80;99.90
3994;DHT22;2011;48.238;13.948;2022-11-28T02:09:59;0.80;99.90
3994;DHT22;2011;48.238;13.948;2022-11-28T02:12:38;0.80;99.90
3994;DHT22;2011;48.238;13.948;2022-11-28T02:15:21;0.80;99.90
3994;DHT22;2011;48.238;13.948;2022-11-28T02:18:02;0.80;99.90
3994;DHT22;2011;48.238;13.948;2022-11-28T02:20:55;0.70;99.90
3994;DHT22;2011;48.238;13.948;2022-11-28T02:23:45;0.70;99.90
3994;DHT22;2011;48.238;13.948;2022-11-28T02:35:16;0.80;99.90
3994;DHT22;2011;48.238;13.948;2022-11-28T02:37:51;0.80;99.90
3994;DHT22;2011;48.238;13.948;2022-11-28T02:40:23;0.90;99.90
3994;DHT22;2011;48.238;13.948;2022-11-28T02:43:02;0.90;99.90
3994;DHT22;2011;48.238;13.948;2022-11-28T02:45:37;0.90;99.90
3994;DHT22;2011;48.238;13.948;2022-11-28T02:48:09;0.90;99.90
3994;DHT22;2011;48.238;13.948;2022-11-28T02:50:40;1.00;99.90
3994;DHT22;2011;48.238;13.948;2022-11-28T02:53:10;1.00;99.90
3994;DHT22;2011;48.238;13.948;2022-11-28T02:55:39;1.00;99.90
3994;DHT22;2011;48.238;13.948;2022-11-28T02:58:07;1.00;99.90
3994;DHT22;2011;48.238;13.948;2022-11-28T03:00:36;1.00;99.90
3994;DHT22;2011;48.238;13.948;2022-11-28T03:03:35;1.00;99.90
3994;DHT22;2011;48.238;13.948;2022-11-28T03:06:11;1.00;99.90
3994;DHT22;2011;48.238;13.948;2022-11-28T03:08:53;1.10;99.90
3994;DHT22;2011;48.238;13.948;2022-11-28T03:11:34;1.10;99.90
3994;DHT22;2011;48.238;13.948;2022-11-28T03:14:08;1.00;99.90
3994;DHT22;2011;48.238;13.948;2022-11-28T03:16:43;1.10;99.90
3994;DHT22;2011;48.238;13.948;2022-11-28T03:19:17;1.10;99.90
3994;DHT22;2011;48.238;13.948;2022-11-28T03:21:49;1.10;99.90
3994;DHT22;2011;48.238;13.948;2022-11-28T03:24:26;1.10;99.90
3994;DHT22;2011;48.238;13.948;2022-11-28T03:26:59;1.20;99.90
3994;DHT22;2011;48.238;13.948;2022-11-28T03:29:31;1.20;99.90
3994;DHT22;2011;48.238;13.948;2022-11-28T03:32:02;1.20;99.90
3994;DHT22;2011;48.238;13.948;2022-11-28T03:34:36;1.20;99.90
3994;DHT22;2011;48.238;13.948;2022-11-28T03:37:06;1.30;99.90
3994;DHT22;2011;48.238;13.948;2022-11-28T03:39:37;1.30;99.90
3994;DHT22;2011;48.238;13.948;2022-11-28T03:42:08;1.30;99.90
3994;DHT22;2011;48.238;13.948;2022-11-28T03:44:38;1.30;99.90
3994;DHT22;2011;48.238;13.948;2022-11-28T03:47:08;1.40;99.90
3994;DHT22;2011;48.238;13.948;2022-11-28T03:49:39;1.40;99.90
3994;DHT22;2011;48.238;13.948;2022-11-28T03:52:09;1.40;99.90
3994;DHT22;2011;48.238;13.948;2022-11-28T03:54:45;1.40;99.90
3994;DHT22;2011;48.238;13.948;2022-11-28T03:57:17;1.50;99.90
3994;DHT22;2011;48.238;13.948;2022-11-28T03:59:46;1.40;99.90
3994;DHT22;2011;48.238;13.948;2022-11-28T04:02:19;1.40;99.90
3994;DHT22;2011;48.238;13.948;2022-11-28T04:04:54;1.40;99.90
3994;DHT22;2011;48.238;13.948;2022-11-28T04:07:30;1.50;99.90
3994;DHT22;2011;48.238;13.948;2022-11-28T04:10:03;1.50;99.90
3994;DHT22;2011;48.238;13.948;2022-11-28T04:12:38;1.50;99.90
3994;DHT22;2011;48.238;13.948;2022-11-28T04:15:10;1.60;99.90
3994;DHT22;2011;48.238;13.948;2022-11-28T04:17:45;1.60;99.90
3994;DHT22;2011;48.238;13.948;2022-11-28T04:20:20;1.60;99.90
3994;DHT22;2011;48.238;13.948;2022-11-28T04:22:53;1.60;99.90
3994;DHT22;2011;48.238;13.948;2022-11-28T04:25:22;1.60;99.90
3994;DHT22;2011;48.238;13.948;2022-11-28T04:27:54;1.60;99.90
3994;DHT22;2011;48.238;13.948;2022-11-28T04:30:22;1.60;99.90
3994;DHT22;2011;48.238;13.948;2022-11-28T04:32:51;1.60;99.90
3994;DHT22;2011;48.238;13.948;2022-11-28T04:35:27;1.60;99.90
3994;DHT22;2011;48.238;13.948;2022-11-28T04:37:57;1.60;99.90
3994;DHT22;2011;48.238;13.948;2022-11-28T04:40:26;1.60;99.90
3994;DHT22;2011;48.238;13.948;2022-11-28T04:42:57;1.60;99.90
3994;DHT22;2011;48.238;13.948;2022-11-28T04:45:28;1.60;99.90
3994;DHT22;2011;48.238;13.948;2022-11-28T04:47:56;1.50;99.90
3994;DHT22;2011;48.238;13.948;2022-11-28T04:50:29;1.50;99.90
3994;DHT22;2011;48.238;13.948;2022-11-28T04:53:00;1.50;99.90
3994;DHT22;2011;48.238;13.948;2022-11-28T04:55:35;1.50;99.90
3994;DHT22;2011;48.238;13.948;2022-11-28T04:58:06;1.50;99.90
3994;DHT22;2011;48.238;13.948;2022-11-28T05:00:36;1.50;99.90
3994;DHT22;2011;48.238;13.948;2022-11-28T05:03:03;1.50;99.90
3994;DHT22;2011;48.238;13.948;2022-11-28T05:05:42;1.60;99.90
3994;DHT22;2011;48.238;13.948;2022-11-28T05:08:09;1.60;99.90
3994;DHT22;2011;48.238;13.948;2022-11-28T05:10:37;1.60;99.90
3994;DHT22;2011;48.238;13.948;2022-11-28T05:13:04;1.60;99.90
3994;DHT22;2011;48.238;13.948;2022-11-28T05:15:31;1.60;99.90
3994;DHT22;2011;48.238;13.948;2022-11-28T05:17:58;1.60;99.90
3994;DHT22;2011;48.238;13.948;2022-11-28T05:20:25;1.60;99.90
3994;DHT22;2011;48.238;13.948;2022-11-28T05:22:54;1.60;99.90
3994;DHT22;2011;48.238;13.948;2022-11-28T05:25:21;1.60;99.90
3994;DHT22;2011;48.238;13.948;2022-11-28T05:27:48;1.60;99.90
3994;DHT22;2011;48.238;13.948;2022-11-28T05:30:15;1.70;99.90
3994;DHT22;2011;48.238;13.948;2022-11-28T05:32:42;1.70;99.90
3994;DHT22;2011;48.238;13.948;2022-11-28T05:35:09;1.70;99.90
3994;DHT22;2011;48.238;13.948;2022-11-28T05:37:36;1.70;99.90
3994;DHT22;2011;48.238;13.948;2022-11-28T05:40:06;1.70;99.90
3994;DHT22;2011;48.238;13.948;2022-11-28T05:42:34;1.70;99.90
3994;DHT22;2011;48.238;13.948;2022-11-28T05:45:01;1.70;99.90
3994;DHT22;2011;48.238;13.948;2022-11-28T05:47:29;1.70;99.90
3994;DHT22;2011;48.238;13.948;2022-11-28T05:49:56;1.80;99.90
3994;DHT22;2011;48.238;13.948;2022-11-28T05:52:23;1.80;99.90
3994;DHT22;2011;48.238;13.948;2022-11-28T05:54:50;1.80;99.90
3994;DHT22;2011;48.238;13.948;2022-11-28T05:57:18;1.80;99.90
3994;DHT22;2011;48.238;13.948;2022-11-28T05:59:45;1.80;99.90
3994;DHT22;2011;48.238;13.948;2022-11-28T06:02:12;1.90;99.90
3994;DHT22;2011;48.238;13.948;2022-11-28T06:04:39;1.90;99.90
3994;DHT22;2011;48.238;13.948;2022-11-28T06:07:06;1.90;99.90
3994;DHT22;2011;48.238;13.948;2022-11-28T06:09:34;1.90;99.90
3994;DHT22;2011;48.238;13.948;2022-11-28T06:12:01;1.90;99.90
3994;DHT22;2011;48.238;13.948;2022-11-28T06:14:29;1.90;99.90
3994;DHT22;2011;48.238;13.948;2022-11-28T06:16:56;1.90;99.90
3994;DHT22;2011;48.238;13.948;2022-11-28T06:19:23;2.00;99.90
3994;DHT22;2011;48.238;13.948;2022-11-28T06:21:49;2.00;99.90
3994;DHT22;2011;48.238;13.948;2022-11-28T06:24:16;2.00;99.90
3994;DHT22;2011;48.238;13.948;2022-11-28T06:26:43;2.00;99.90
3994;DHT22;2011;48.238;13.948;2022-11-28T06:29:11;2.10;99.90
3994;DHT22;2011;48.238;13.948;2022-11-28T06:31:39;2.10;99.90
3994;DHT22;2011;48.238;13.948;2022-11-28T06:34:06;2.10;99.90
3994;DHT22;2011;48.238;13.948;2022-11-28T06:36:33;2.10;99.90
3994;DHT22;2011;48.238;13.948;2022-11-28T06:38:59;2.00;99.90
3994;DHT22;2011;48.238;13.948;2022-11-28T06:41:26;2.10;99.90
3994;DHT22;2011;48.238;13.948;2022-11-28T06:43:54;2.00;99.90
3994;DHT22;2011;48.238;13.948;2022-11-28T06:46:22;2.00;99.90
3994;DHT22;2011;48.238;13.948;2022-11-28T06:48:52;2.00;99.90
3994;DHT22;2011;48.238;13.948;2022-11-28T06:51:19;2.10;99.90
3994;DHT22;2011;48.238;13.948;2022-11-28T06:53:46;2.10;99.90
3994;DHT22;2011;48.238;13.948;2022-11-28T06:56:15;2.10;99.90
3994;DHT22;2011;48.238;13.948;2022-11-28T06:58:42;2.10;99.90
3994;DHT22;2011;48.238;13.948;2022-11-28T07:01:11;2.10;99.90
3994;DHT22;2011;48.238;13.948;2022-11-28T07:03:38;2.10;99.90
3994;DHT22;2011;48.238;13.948;2022-11-28T07:06:07;2.10;99.90
3994;DHT22;2011;48.238;13.948;2022-11-28T07:08:35;2.10;99.90
3994;DHT22;2011;48.238;13.948;2022-11-28T07:11:07;2.20;99.90
3994;DHT22;2011;48.238;13.948;2022-11-28T07:13:34;2.20;99.90
3994;DHT22;2011;48.238;13.948;2022-11-28T07:16:01;2.20;99.90
3994;DHT22;2011;48.238;13.948;2022-11-28T07:18:29;2.30;99.90
3994;DHT22;2011;48.238;13.948;2022-11-28T07:20:55;2.30;99.90
3994;DHT22;2011;48.238;13.948;2022-11-28T07:23:24;2.30;99.90
3994;DHT22;2011;48.238;13.948;2022-11-28T07:25:57;2.30;99.90
3994;DHT22;2011;48.238;13.948;2022-11-28T07:28:24;2.40;99.90
3994;DHT22;2011;48.238;13.948;2022-11-28T07:30:58;2.40;99.90
3994;DHT22;2011;48.238;13.948;2022-11-28T07:33:26;2.50;99.90
3994;DHT22;2011;48.238;13.948;2022-11-28T07:35:53;2.50;99.90
3994;DHT22;2011;48.238;13.948;2022-11-28T07:38:20;2.50;99.90
3994;DHT22;2011;48.238;13.948;2022-11-28T07:40:48;2.50;99.90
3994;DHT22;2011;48.238;13.948;2022-11-28T07:43:15;2.50;99.90
3994;DHT22;2011;48.238;13.948;2022-11-28T07:45:42;2.50;99.90
3994;DHT22;2011;48.238;13.948;2022-11-28T07:48:09;2.50;99.90
3994;DHT22;2011;48.238;13.948;2022-11-28T07:50:37;2.50;99.90
3994;DHT22;2011;48.238;13.948;2022-11-28T07:53:04;2.50;99.90
3994;DHT22;2011;48.238;13.948;2022-11-28T07:55:34;2.50;99.90
3994;DHT22;2011;48.238;13.948;2022-11-28T07:58:02;2.50;99.90
3994;DHT22;2011;48.238;13.948;2022-11-28T08:00:30;2.50;99.90
3994;DHT22;2011;48.238;13.948;2022-11-28T08:02:57;2.50;99.90
3994;DHT22;2011;48.238;13.948;2022-11-28T08:05:24;2.50;99.90
3994;DHT22;2011;48.238;13.948;2022-11-28T08:07:51;2.50;99.90
3994;DHT22;2011;48.238;13.948;2022-11-28T08:10:18;2.50;99.90
3994;DHT22;2011;48.238;13.948;2022-11-28T08:12:44;2.60;99.90
3994;DHT22;2011;48.238;13.948;2022-11-28T08:15:13;2.40;99.90
3994;DHT22;2011;48.238;13.948;2022-11-28T08:17:40;2.40;99.90
3994;DHT22;2011;48.238;13.948;2022-11-28T08:20:08;2.40;99.90
3994;DHT22;2011;48.238;13.948;2022-11-28T08:22:35;2.50;99.90
3994;DHT22;2011;48.238;13.948;2022-11-28T08:25:01;2.50;99.90
3994;DHT22;2011;48.238;13.948;2022-11-28T08:27:28;2.50;99.90
3994;DHT22;2011;48.238;13.948;2022-11-28T08:29:55;2.50;99.90
3994;DHT22;2011;48.238;13.948;2022-11-28T08:32:23;2.40;99.90
3994;DHT22;2011;48.238;13.948;2022-11-28T08:34:51;2.40;99.90
3994;DHT22;2011;48.238;13.948;2022-11-28T08:37:17;2.40;99.90
3994;DHT22;2011;48.238;13.948;2022-11-28T08:39:44;2.40;99.90
3994;DHT22;2011;48.238;13.948;2022-11-28T08:42:11;2.40;99.90
3994;DHT22;2011;48.238;13.948;2022-11-28T08:44:38;2.40;99.90
3994;DHT22;2011;48.238;13.948;2022-11-28T08:47:05;2.40;99.90
3994;DHT22;2011;48.238;13.948;2022-11-28T08:49:35;2.40;99.90
3994;DHT22;2011;48.238;13.948;2022-11-28T08:52:03;2.40;99.90
3994;DHT22;2011;48.238;13.948;2022-11-28T08:54:30;2.50;99.90
3994;DHT22;2011;48.238;13.948;2022-11-28T08:56:57;2.50;99.90
3994;DHT22;2011;48.238;13.948;2022-11-28T08:59:25;2.50;99.90
3994;DHT22;2011;48.238;13.948;2022-11-28T09:01:53;2.60;99.90
3994;DHT22;2011;48.238;13.948;2022-11-28T09:04:20;2.60;99.90
3994;DHT22;2011;48.238;13.948;2022-11-28T09:06:49;2.60;99.90
3994;DHT22;2011;48.238;13.948;2022-11-28T09:09:17;2.60;99.90
3994;DHT22;2011;48.238;13.948;2022-11-28T09:11:44;2.60;99.90
3994;DHT22;2011;48.238;13.948;2022-11-28T09:14:11;2.60;99.90
3994;DHT22;2011;48.238;13.948;2022-11-28T09:16:39;2.50;99.90
3994;DHT22;2011;48.238;13.948;2022-11-28T09:19:06;2.60;99.90
3994;DHT22;2011;48.238;13.948;2022-11-28T09:21:35;2.60;99.90
3994;DHT22;2011;48.238;13.948;2022-11-28T09:24:04;2.60;99.90
3994;DHT22;2011;48.238;13.948;2022-11-28T09:26:31;2.70;99.90
3994;DHT22;2011;48.238;13.948;2022-11-28T09:28:58;2.70;99.90
3994;DHT22;2011;48.238;13.948;2022-11-28T09:31:25;2.70;99.90
3994;DHT22;2011;48.238;13.948;2022-11-28T09:33:52;2.70;99.90
3994;DHT22;2011;48.238;13.948;2022-11-28T09:36:21;2.70;99.90
3994;DHT22;2011;48.238;13.948;2022-11-28T09:38:48;2.70;99.90
3994;DHT22;2011;48.238;13.948;2022-11-28T09:44:21;2.80;99.90
3994;DHT22;2011;48.238;13.948;2022-11-28T09:46:50;2.80;99.90
3994;DHT22;2011;48.238;13.948;2022-11-28T09:49:33;2.80;99.90
3994;DHT22;2011;48.238;13.948;2022-11-28T09:52:08;2.90;99.90
3994;DHT22;2011;48.238;13.948;2022-11-28T09:54:41;2.90;99.90
3994;DHT22;2011;48.238;13.948;2022-11-28T09:57:15;2.90;99.90
3994;DHT22;2011;48.238;13.948;2022-11-28T09:59:45;3.00;99.90
3994;DHT22;2011;48.238;13.948;2022-11-28T10:02:23;3.00;99.90
3994;DHT22;2011;48.238;13.948;2022-11-28T10:05:00;3.10;99.90
3994;DHT22;2011;48.238;13.948;2022-11-28T10:07:42;3.10;99.90
3994;DHT22;2011;48.238;13.948;2022-11-28T10:10:17;3.20;99.90
3994;DHT22;2011;48.238;13.948;2022-11-28T10:12:55;3.30;99.90
3994;DHT22;2011;48.238;13.948;2022-11-28T10:15:33;3.40;99.90
3994;DHT22;2011;48.238;13.948;2022-11-28T10:18:14;3.40;99.90
3994;DHT22;2011;48.238;13.948;2022-11-28T10:20:52;3.50;99.90
3994;DHT22;2011;48.238;13.948;2022-11-28T10:23:22;3.60;99.90
3994;DHT22;2011;48.238;13.948;2022-11-28T10:25:52;3.60;99.90
3994;DHT22;2011;48.238;13.948;2022-11-28T10:28:24;3.60;99.90
3994;DHT22;2011;48.238;13.948;2022-11-28T10:30:55;3.70;99.90
3994;DHT22;2011;48.238;13.948;2022-11-28T10:33:27;3.70;99.90
3994;DHT22;2011;48.238;13.948;2022-11-28T10:35:57;3.80;99.90
3994;DHT22;2011;48.238;13.948;2022-11-28T10:38:26;3.80;99.90
3994;DHT22;2011;48.238;13.948;2022-11-28T10:40:58;3.90;99.90
3994;DHT22;2011;48.238;13.948;2022-11-28T10:43:38;4.00;99.90
3994;DHT22;2011;48.238;13.948;2022-11-28T10:46:32;4.10;99.90
3994;DHT22;2011;48.238;13.948;2022-11-28T10:49:08;4.10;99.90
3994;DHT22;2011;48.238;13.948;2022-11-28T10:51:47;4.20;99.90
3994;DHT22;2011;48.238;13.948;2022-11-28T10:54:21;4.20;99.90
3994;DHT22;2011;48.238;13.948;2022-11-28T10:56:58;4.20;99.90
3994;DHT22;2011;48.238;13.948;2022-11-28T10:59:36;4.20;99.90
3994;DHT22;2011;48.238;13.948;2022-11-28T11:02:19;4.20;99.90
3994;DHT22;2011;48.238;13.948;2022-11-28T11:04:46;4.30;99.90
3994;DHT22;2011;48.238;13.948;2022-11-28T11:07:16;4.30;99.90
3994;DHT22;2011;48.238;13.948;2022-11-28T11:09:44;4.30;99.90
3994;DHT22;2011;48.238;13.948;2022-11-28T11:12:18;4.30;99.90
3994;DHT22;2011;48.238;13.948;2022-11-28T11:14:47;4.30;99.90
3994;DHT22;2011;48.238;13.948;2022-11-28T11:17:30;4.40;99.90
3994;DHT22;2011;48.238;13.948;2022-11-28T11:19:58;4.40;99.90
3994;DHT22;2011;48.238;13.948;2022-11-28T11:22:26;4.40;99.90
3994;DHT22;2011;48.238;13.948;2022-11-28T11:25:12;4.50;99.90
3994;DHT22;2011;48.238;13.948;2022-11-28T11:27:46;4.50;99.90
3994;DHT22;2011;48.238;13.948;2022-11-28T11:30:24;4.60;99.90
3994;DHT22;2011;48.238;13.948;2022-11-28T11:32:53;4.60;99.90
3994;DHT22;2011;48.238;13.948;2022-11-28T11:35:22;4.60;99.90
3994;DHT22;2011;48.238;13.948;2022-11-28T11:37:50;4.60;99.90
3994;DHT22;2011;48.238;13.948;2022-11-28T11:40:21;4.70;99.90
3994;DHT22;2011;48.238;13.948;2022-11-28T11:42:52;4.80;99.90
3994;DHT22;2011;48.238;13.948;2022-11-28T11:45:27;4.70;99.90
3994;DHT22;2011;48.238;13.948;2022-11-28T11:47:54;4.80;99.90
3994;DHT22;2011;48.238;13.948;2022-11-28T11:50:23;4.80;99.90
3994;DHT22;2011;48.238;13.948;2022-11-28T11:53:00;4.80;99.90
3994;DHT22;2011;48.238;13.948;2022-11-28T11:55:29;4.90;99.90
3994;DHT22;2011;48.238;13.948;2022-11-28T11:57:58;4.90;99.90
3994;DHT22;2011;48.238;13.948;2022-11-28T12:00:34;4.90;99.90
3994;DHT22;2011;48.238;13.948;2022-11-28T12:03:05;4.60;99.90
3994;DHT22;2011;48.238;13.948;2022-11-28T12:05:45;4.90;99.90
3994;DHT22;2011;48.238;13.948;2022-11-28T12:08:16;4.90;99.90
3994;DHT22;2011;48.238;13.948;2022-11-28T12:10:50;4.90;99.90
3994;DHT22;2011;48.238;13.948;2022-11-28T12:13:20;5.00;99.90
3994;DHT22;2011;48.238;13.948;2022-11-28T12:15:56;5.00;99.90
3994;DHT22;2011;48.238;13.948;2022-11-28T12:18:31;5.00;99.90
3994;DHT22;2011;48.238;13.948;2022-11-28T12:21:09;5.00;99.90
3994;DHT22;2011;48.238;13.948;2022-11-28T12:24:02;5.00;99.90
3994;DHT22;2011;48.238;13.948;2022-11-28T12:26:35;5.10;99.90
3994;DHT22;2011;48.238;13.948;2022-11-28T12:29:21;5.10;99.90
3994;DHT22;2011;48.238;13.948;2022-11-28T12:32:01;5.10;99.90
3994;DHT22;2011;48.238;13.948;2022-11-28T12:34:36;5.10;99.90
3994;DHT22;2011;48.238;13.948;2022-11-28T12:37:16;5.00;99.90
3994;DHT22;2011;48.238;13.948;2022-11-28T12:39:53;4.90;99.90
3994;DHT22;2011;48.238;13.948;2022-11-28T12:42:32;4.90;99.90
3994;DHT22;2011;48.238;13.948;2022-11-28T12:45:29;4.80;99.90
3994;DHT22;2011;48.238;13.948;2022-11-28T12:48:07;4.80;99.90
3994;DHT22;2011;48.238;13.948;2022-11-28T12:50:39;4.80;99.90
3994;DHT22;2011;48.238;13.948;2022-11-28T12:53:31;4.80;99.90
3994;DHT22;2011;48.238;13.948;2022-11-28T12:56:11;4.80;99.90
3994;DHT22;2011;48.238;13.948;2022-11-28T12:58:47;4.80;99.90
3994;DHT22;2011;48.238;13.948;2022-11-28T13:01:29;4.80;99.90
3994;DHT22;2011;48.238;13.948;2022-11-28T13:04:08;4.80;99.90
3994;DHT22;2011;48.238;13.948;2022-11-28T13:06:46;4.80;99.90
3994;DHT22;2011;48.238;13.948;2022-11-28T13:09:28;4.80;99.90
3994;DHT22;2011;48.238;13.948;2022-11-28T13:12:06;4.80;99.90
3994;DHT22;2011;48.238;13.948;2022-11-28T13:14:42;4.80;99.90
3994;DHT22;2011;48.238;13.948;2022-11-28T13:17:21;4.70;99.90
3994;DHT22;2011;48.238;13.948;2022-11-28T13:19:57;4.80;99.90
3994;DHT22;2011;48.238;13.948;2022-11-28T13:22:31;4.70;99.90
3994;DHT22;2011;48.238;13.948;2022-11-28T13:25:05;4.70;99.90
3994;DHT22;2011;48.238;13.948;2022-11-28T13:27:38;4.80;99.90
3994;DHT22;2011;48.238;13.948;2022-11-28T13:30:18;4.80;99.90
3994;DHT22;2011;48.238;13.948;2022-11-28T13:32:52;4.80;99.90
3994;DHT22;2011;48.238;13.948;2022-11-28T13:35:27;4.90;99.90
3994;DHT22;2011;48.238;13.948;2022-11-28T13:37:58;4.90;99.90
3994;DHT22;2011;48.238;13.948;2022-11-28T13:40:33;4.90;99.90
3994;DHT22;2011;48.238;13.948;2022-11-28T13:43:05;4.90;99.90
3994;DHT22;2011;48.238;13.948;2022-11-28T13:45:34;4.90;99.90
3994;DHT22;2011;48.238;13.948;2022-11-28T13:51:18;4.90;99.90
3994;DHT22;2011;48.238;13.948;2022-11-28T13:53:47;4.90;99.90
3994;DHT22;2011;48.238;13.948;2022-11-28T13:56:22;4.90;99.90
3994;DHT22;2011;48.238;13.948;2022-11-28T13:58:53;5.00;99.90
3994;DHT22;2011;48.238;13.948;2022-11-28T14:01:22;5.00;99.90
3994;DHT22;2011;48.238;13.948;2022-11-28T14:03:52;5.00;99.90
3994;DHT22;2011;48.238;13.948;2022-11-28T14:06:29;5.00;99.90
3994;DHT22;2011;48.238;13.948;2022-11-28T14:09:03;5.00;99.90
3994;DHT22;2011;48.238;13.948;2022-11-28T14:14:49;5.00;99.90
3994;DHT22;2011;48.238;13.948;2022-11-28T14:17:35;4.90;99.90
3994;DHT22;2011;48.238;13.948;2022-11-28T14:20:17;4.90;99.90
3994;DHT22;2011;48.238;13.948;2022-11-28T14:22:57;4.80;99.90
3994;DHT22;2011;48.238;13.948;2022-11-28T14:25:29;4.80;99.90
3994;DHT22;2011;48.238;13.948;2022-11-28T14:27:59;4.70;99.90
3994;DHT22;2011;48.238;13.948;2022-11-28T14:30:31;4.70;99.90
3994;DHT22;2011;48.238;13.948;2022-11-28T14:33:00;4.70;99.90
3994;DHT22;2011;48.238;13.948;2022-11-28T14:38:46;4.70;99.90
3994;DHT22;2011;48.238;13.948;2022-11-28T14:41:25;4.70;99.90
3994;DHT22;2011;48.238;13.948;2022-11-28T14:43:52;4.60;99.90
3994;DHT22;2011;48.238;13.948;2022-11-28T14:46:25;4.70;99.90
3994;DHT22;2011;48.238;13.948;2022-11-28T14:49:17;4.60;99.90
3994;DHT22;2011;48.238;13.948;2022-11-28T14:52:19;4.60;99.90
3994;DHT22;2011;48.238;13.948;2022-11-28T14:54:49;4.50;99.90
3994;DHT22;2011;48.238;13.948;2022-11-28T14:57:18;4.40;99.90
3994;DHT22;2011;48.238;13.948;2022-11-28T14:59:46;4.40;99.90
3994;DHT22;2011;48.238;13.948;2022-11-28T15:02:40;4.40;99.90
3994;DHT22;2011;48.238;13.948;2022-11-28T15:05:28;4.40;99.90
3994;DHT22;2011;48.238;13.948;2022-11-28T15:08:33;4.40;99.90
3994;DHT22;2011;48.238;13.948;2022-11-28T15:11:20;4.30;99.90
3994;DHT22;2011;48.238;13.948;2022-11-28T15:14:09;4.30;99.90
3994;DHT22;2011;48.238;13.948;2022-11-28T15:16:42;4.30;99.90
3994;DHT22;2011;48.238;13.948;2022-11-28T15:19:14;4.20;99.90
3994;DHT22;2011;48.238;13.948;2022-11-28T15:21:43;4.20;99.90
3994;DHT22;2011;48.238;13.948;2022-11-28T15:24:21;4.20;99.90
3994;DHT22;2011;48.238;13.948;2022-11-28T15:26:50;4.20;99.90
3994;DHT22;2011;48.238;13.948;2022-11-28T15:29:18;4.10;99.90
3994;DHT22;2011;48.238;13.948;2022-11-28T15:31:47;4.10;99.90
3994;DHT22;2011;48.238;13.948;2022-11-28T15:34:22;4.00;99.90
3994;DHT22;2011;48.238;13.948;2022-11-28T15:36:51;4.00;99.90
3994;DHT22;2011;48.238;13.948;2022-11-28T15:39:26;4.00;99.90
3994;DHT22;2011;48.238;13.948;2022-11-28T15:41:56;4.00;99.90
3994;DHT22;2011;48.238;13.948;2022-11-28T15:44:25;4.00;99.90
3994;DHT22;2011;48.238;13.948;2022-11-28T15:46:53;3.90;99.90
3994;DHT22;2011;48.238;13.948;2022-11-28T15:49:24;3.90;99.90
3994;DHT22;2011;48.238;13.948;2022-11-28T15:51:53;3.90;99.90
3994;DHT22;2011;48.238;13.948;2022-11-28T15:54:33;4.00;99.90
3994;DHT22;2011;48.238;13.948;2022-11-28T15:57:03;4.00;99.90
3994;DHT22;2011;48.238;13.948;2022-11-28T15:59:31;4.00;99.90
3994;DHT22;2011;48.238;13.948;2022-11-28T16:02:01;3.90;99.90
3994;DHT22;2011;48.238;13.948;2022-11-28T16:04:29;4.00;99.90
3994;DHT22;2011;48.238;13.948;2022-11-28T16:06:59;3.90;99.90
3994;DHT22;2011;48.238;13.948;2022-11-28T16:09:29;3.90;99.90
3994;DHT22;2011;48.238;13.948;2022-11-28T16:12:00;3.80;99.90
3994;DHT22;2011;48.238;13.948;2022-11-28T16:14:30;3.80;99.90
3994;DHT22;2011;48.238;13.948;2022-11-28T16:17:00;3.70;99.90
3994;DHT22;2011;48.238;13.948;2022-11-28T16:19:29;3.70;99.90
3994;DHT22;2011;48.238;13.948;2022-11-28T16:21:58;3.70;99.90
3994;DHT22;2011;48.238;13.948;2022-11-28T16:24:27;3.80;99.90
3994;DHT22;2011;48.238;13.948;2022-11-28T16:26:56;3.80;99.90
3994;DHT22;2011;48.238;13.948;2022-11-28T16:29:26;3.80;99.90
3994;DHT22;2011;48.238;13.948;2022-11-28T16:32:05;3.80;99.90
3994;DHT22;2011;48.238;13.948;2022-11-28T16:34:46;3.80;99.90
3994;DHT22;2011;48.238;13.948;2022-11-28T16:37:15;3.80;99.90
3994;DHT22;2011;48.238;13.948;2022-11-28T16:39:43;3.80;99.90
3994;DHT22;2011;48.238;13.948;2022-11-28T16:42:13;3.70;99.90
3994;DHT22;2011;48.238;13.948;2022-11-28T16:44:41;3.70;99.90
3994;DHT22;2011;48.238;13.948;2022-11-28T16:47:24;3.70;99.90
3994;DHT22;2011;48.238;13.948;2022-11-28T16:50:14;3.70;99.90
3994;DHT22;2011;48.238;13.948;2022-11-28T16:52:44;3.70;99.90
3994;DHT22;2011;48.238;13.948;2022-11-28T16:55:36;3.80;99.90